sensor_id;sensor_type;location;lat;lon;timestamp;pressure;altitude;pressure_sealevel;temperature;humidity
77587;BME280;66744;49.716;17.158;2023-07-30T00:00:05;98607.19;;;19.37;74.23
77587;BME280;66744;49.716;17.158;2023-07-30T00:03:16;98620.09;;;19.24;74.43
77587;BME280;66744;49.716;17.158;2023-07-30T00:06:24;98632.72;;;19.14;74.33
77587;BME280;66744;49.716;17.158;2023-07-30T00:09:26;98616.75;;;19.03;74.41
77587;BME280;66744;49.716;17.158;2023-07-30T00:12:27;98625.59;;;19.02;74.56
77587;BME280;66744;49.716;17.158;2023-07-30T00:15:29;98622.03;;;18.96;73.95
77587;BME280;66744;49.716;17.158;2023-07-30T00:18:30;98619.75;;;18.94;74.79
77587;BME280;66744;49.716;17.158;2023-07-30T00:21:32;98626.56;;;18.93;74.96
77587;BME280;66744;49.716;17.158;2023-07-30T00:24:34;98628.31;;;18.85;74.97
77587;BME280;66744;49.716;17.158;2023-07-30T00:27:38;98607.31;;;18.90;74.51
77587;BME280;66744;49.716;17.158;2023-07-30T00:30:40;98622.53;;;18.94;74.73
77587;BME280;66744;49.716;17.158;2023-07-30T00:33:44;98641.03;;;19.03;74.26
77587;BME280;66744;49.716;17.158;2023-07-30T00:36:51;98642.28;;;18.96;74.78
77587;BME280;66744;49.716;17.158;2023-07-30T00:39:55;98644.81;;;18.94;74.53
77587;BME280;66744;49.716;17.158;2023-07-30T00:42:59;98625.25;;;18.83;75.71
77587;BME280;66744;49.716;17.158;2023-07-30T00:46:01;98637.41;;;18.80;74.94
77587;BME280;66744;49.716;17.158;2023-07-30T00:49:10;98647.78;;;18.79;75.10
77587;BME280;66744;49.716;17.158;2023-07-30T00:52:12;98643.72;;;18.80;75.09
77587;BME280;66744;49.716;17.158;2023-07-30T00:55:19;98648.28;;;18.83;74.76
77587;BME280;66744;49.716;17.158;2023-07-30T00:58:20;98656.16;;;18.79;75.05
77587;BME280;66744;49.716;17.158;2023-07-30T01:01:25;98640.66;;;18.73;74.46
77587;BME280;66744;49.716;17.158;2023-07-30T01:04:27;98654.59;;;18.78;75.94
77587;BME280;66744;49.716;17.158;2023-07-30T01:07:29;98650.53;;;18.74;75.14
77587;BME280;66744;49.716;17.158;2023-07-30T01:10:32;98650.81;;;18.76;76.26
77587;BME280;66744;49.716;17.158;2023-07-30T01:17:30;98641.91;;;18.66;75.89
77587;BME280;66744;49.716;17.158;2023-07-30T01:20:32;98641.91;;;18.66;75.59
77587;BME280;66744;49.716;17.158;2023-07-30T01:23:33;98630.53;;;18.70;75.05
77587;BME280;66744;49.716;17.158;2023-07-30T01:26:47;98632.03;;;18.65;76.02
77587;BME280;66744;49.716;17.158;2023-07-30T01:29:55;98625.19;;;18.61;77.22
77587;BME280;66744;49.716;17.158;2023-07-30T01:33:01;98624.69;;;18.68;75.80
77587;BME280;66744;49.716;17.158;2023-07-30T01:36:03;98631.81;;;18.80;75.36
77587;BME280;66744;49.716;17.158;2023-07-30T01:39:06;98626.47;;;18.71;74.32
77587;BME280;66744;49.716;17.158;2023-07-30T01:42:11;98619.41;;;18.70;74.24
77587;BME280;66744;49.716;17.158;2023-07-30T01:45:13;98625.22;;;18.72;75.25
77587;BME280;66744;49.716;17.158;2023-07-30T01:48:15;98624.22;;;18.75;75.21
77587;BME280;66744;49.716;17.158;2023-07-30T01:51:16;98626.47;;;18.65;76.04
77587;BME280;66744;49.716;17.158;2023-07-30T01:54:18;98639.66;;;18.70;76.10
77587;BME280;66744;49.716;17.158;2023-07-30T01:57:19;98632.03;;;18.71;75.21
77587;BME280;66744;49.716;17.158;2023-07-30T02:00:21;98631.31;;;18.76;75.33
77587;BME280;66744;49.716;17.158;2023-07-30T02:03:23;98635.81;;;18.68;74.66
77587;BME280;66744;49.716;17.158;2023-07-30T02:06:24;98630.50;;;18.59;75.25
77587;BME280;66744;49.716;17.158;2023-07-30T02:09:26;98628.72;;;18.56;74.80
77587;BME280;66744;49.716;17.158;2023-07-30T02:12:27;98625.94;;;18.56;75.04
77587;BME280;66744;49.716;17.158;2023-07-30T02:15:31;98623.31;;;18.47;74.85
77587;BME280;66744;49.716;17.158;2023-07-30T02:18:41;98624.56;;;18.40;75.72
77587;BME280;66744;49.716;17.158;2023-07-30T02:21:42;98629.38;;;18.45;74.42
77587;BME280;66744;49.716;17.158;2023-07-30T02:24:44;98630.81;;;18.35;74.58
77587;BME280;66744;49.716;17.158;2023-07-30T02:27:45;98647.06;;;18.42;74.71
77587;BME280;66744;49.716;17.158;2023-07-30T02:30:47;98650.25;;;18.29;75.40
77587;BME280;66744;49.716;17.158;2023-07-30T02:33:48;98651.53;;;18.28;75.63
77587;BME280;66744;49.716;17.158;2023-07-30T02:36:49;98651.44;;;18.17;76.15
77587;BME280;66744;49.716;17.158;2023-07-30T02:39:51;98645.59;;;18.10;76.87
77587;BME280;66744;49.716;17.158;2023-07-30T02:42:52;98658.53;;;18.18;75.88
77587;BME280;66744;49.716;17.158;2023-07-30T02:45:55;98652.44;;;18.14;75.25
77587;BME280;66744;49.716;17.158;2023-07-30T02:48:56;98650.91;;;18.08;74.56
77587;BME280;66744;49.716;17.158;2023-07-30T02:51:58;98652.38;;;18.03;74.91
77587;BME280;66744;49.716;17.158;2023-07-30T02:54:59;98655.13;;;17.98;74.97
77587;BME280;66744;49.716;17.158;2023-07-30T02:58:01;98667.22;;;17.95;75.16
77587;BME280;66744;49.716;17.158;2023-07-30T03:01:07;98672.00;;;17.94;75.54
77587;BME280;66744;49.716;17.158;2023-07-30T03:04:09;98664.66;;;17.91;74.89
77587;BME280;66744;49.716;17.158;2023-07-30T03:07:11;98663.34;;;17.81;75.49
77587;BME280;66744;49.716;17.158;2023-07-30T03:10:12;98672.47;;;17.87;75.94
77587;BME280;66744;49.716;17.158;2023-07-30T03:13:13;98654.94;;;17.75;75.46
77587;BME280;66744;49.716;17.158;2023-07-30T03:16:15;98656.84;;;17.64;76.14
77587;BME280;66744;49.716;17.158;2023-07-30T03:19:16;98650.25;;;17.61;75.46
77587;BME280;66744;49.716;17.158;2023-07-30T03:22:17;98643.50;;;17.68;74.65
77587;BME280;66744;49.716;17.158;2023-07-30T03:25:19;98652.16;;;17.75;75.01
77587;BME280;66744;49.716;17.158;2023-07-30T03:28:23;98663.50;;;17.72;74.62
77587;BME280;66744;49.716;17.158;2023-07-30T03:31:25;98667.63;;;17.82;75.22
77587;BME280;66744;49.716;17.158;2023-07-30T03:34:27;98660.81;;;17.83;75.43
77587;BME280;66744;49.716;17.158;2023-07-30T03:37:29;98668.97;;;17.92;75.97
77587;BME280;66744;49.716;17.158;2023-07-30T03:40:30;98665.97;;;17.96;75.68
77587;BME280;66744;49.716;17.158;2023-07-30T03:43:35;98667.75;;;17.99;75.53
77587;BME280;66744;49.716;17.158;2023-07-30T03:46:36;98658.63;;;17.93;75.94
77587;BME280;66744;49.716;17.158;2023-07-30T03:49:37;98643.16;;;17.86;76.64
77587;BME280;66744;49.716;17.158;2023-07-30T03:52:39;98642.38;;;17.86;77.92
77587;BME280;66744;49.716;17.158;2023-07-30T03:55:40;98642.94;;;17.90;77.66
77587;BME280;66744;49.716;17.158;2023-07-30T03:58:42;98640.97;;;17.96;77.49
77587;BME280;66744;49.716;17.158;2023-07-30T04:01:46;98642.75;;;17.99;77.34
77587;BME280;66744;49.716;17.158;2023-07-30T04:04:48;98637.44;;;18.01;77.80
77587;BME280;66744;49.716;17.158;2023-07-30T04:07:51;98641.03;;;18.07;76.92
77587;BME280;66744;49.716;17.158;2023-07-30T04:10:52;98625.34;;;18.04;76.08
77587;BME280;66744;49.716;17.158;2023-07-30T04:13:53;98633.44;;;18.07;76.43
77587;BME280;66744;49.716;17.158;2023-07-30T04:16:55;98648.59;;;18.06;76.20
77587;BME280;66744;49.716;17.158;2023-07-30T04:19:56;98649.63;;;18.09;77.21
77587;BME280;66744;49.716;17.158;2023-07-30T04:22:58;98644.34;;;18.11;76.96
77587;BME280;66744;49.716;17.158;2023-07-30T04:26:01;98644.84;;;18.09;77.46
77587;BME280;66744;49.716;17.158;2023-07-30T04:29:02;98649.66;;;18.14;78.31
77587;BME280;66744;49.716;17.158;2023-07-30T04:32:04;98661.13;;;18.27;77.89
77587;BME280;66744;49.716;17.158;2023-07-30T04:35:06;98648.22;;;18.24;77.78
77587;BME280;66744;49.716;17.158;2023-07-30T04:38:08;98653.81;;;18.30;77.76
77587;BME280;66744;49.716;17.158;2023-07-30T04:41:09;98667.56;;;18.45;78.26
77587;BME280;66744;49.716;17.158;2023-07-30T04:44:17;98663.78;;;18.48;77.55
77587;BME280;66744;49.716;17.158;2023-07-30T04:47:18;98662.84;;;18.56;77.17
77587;BME280;66744;49.716;17.158;2023-07-30T04:50:21;98670.53;;;18.72;77.32
77587;BME280;66744;49.716;17.158;2023-07-30T04:53:22;98671.31;;;18.78;77.13
77587;BME280;66744;49.716;17.158;2023-07-30T04:56:24;98666.50;;;18.79;77.72
77587;BME280;66744;49.716;17.158;2023-07-30T04:59:28;98665.75;;;18.84;77.04
77587;BME280;66744;49.716;17.158;2023-07-30T05:02:29;98657.41;;;18.84;77.73
77587;BME280;66744;49.716;17.158;2023-07-30T05:05:31;98658.97;;;18.91;77.73
77587;BME280;66744;49.716;17.158;2023-07-30T05:08:35;98671.88;;;18.94;77.09
77587;BME280;66744;49.716;17.158;2023-07-30T05:11:36;98675.44;;;19.00;77.75
77587;BME280;66744;49.716;17.158;2023-07-30T05:14:38;98689.66;;;19.13;76.96
77587;BME280;66744;49.716;17.158;2023-07-30T05:17:44;98698.31;;;19.20;77.44
77587;BME280;66744;49.716;17.158;2023-07-30T05:20:53;98706.16;;;19.27;77.47
77587;BME280;66744;49.716;17.158;2023-07-30T05:23:55;98703.91;;;19.31;76.32
77587;BME280;66744;49.716;17.158;2023-07-30T05:26:56;98704.19;;;19.39;75.98
77587;BME280;66744;49.716;17.158;2023-07-30T05:29:58;98691.81;;;19.46;75.89
77587;BME280;66744;49.716;17.158;2023-07-30T05:32:59;98701.22;;;19.54;76.68
77587;BME280;66744;49.716;17.158;2023-07-30T05:36:06;98696.91;;;19.58;76.55
77587;BME280;66744;49.716;17.158;2023-07-30T05:39:10;98701.97;;;19.60;75.96
77587;BME280;66744;49.716;17.158;2023-07-30T05:42:23;98690.06;;;19.65;75.89
77587;BME280;66744;49.716;17.158;2023-07-30T05:45:27;98693.38;;;19.74;75.60
77587;BME280;66744;49.716;17.158;2023-07-30T05:48:31;98689.84;;;19.68;75.81
77587;BME280;66744;49.716;17.158;2023-07-30T05:51:34;98688.53;;;19.64;76.91
77587;BME280;66744;49.716;17.158;2023-07-30T05:54:46;98691.56;;;19.66;76.53
77587;BME280;66744;49.716;17.158;2023-07-30T05:57:49;98701.75;;;19.80;76.14
77587;BME280;66744;49.716;17.158;2023-07-30T06:00:56;98707.81;;;19.73;75.70
77587;BME280;66744;49.716;17.158;2023-07-30T06:03:58;98701.22;;;19.76;76.04
77587;BME280;66744;49.716;17.158;2023-07-30T06:07:06;98699.44;;;19.89;76.27
77587;BME280;66744;49.716;17.158;2023-07-30T06:10:10;98696.41;;;19.93;76.41
77587;BME280;66744;49.716;17.158;2023-07-30T06:13:17;98692.63;;;19.96;76.42
77587;BME280;66744;49.716;17.158;2023-07-30T06:16:23;98693.63;;;19.87;77.04
77587;BME280;66744;49.716;17.158;2023-07-30T06:19:24;98696.41;;;19.93;75.96
77587;BME280;66744;49.716;17.158;2023-07-30T06:22:28;98702.28;;;20.01;76.48
77587;BME280;66744;49.716;17.158;2023-07-30T06:25:30;98702.00;;;19.98;76.30
77587;BME280;66744;49.716;17.158;2023-07-30T06:28:32;98714.19;;;20.07;76.49
77587;BME280;66744;49.716;17.158;2023-07-30T06:31:34;98709.84;;;20.17;75.63
77587;BME280;66744;49.716;17.158;2023-07-30T06:34:40;98705.03;;;20.23;74.91
77587;BME280;66744;49.716;17.158;2023-07-30T06:37:42;98701.25;;;20.31;74.62
77587;BME280;66744;49.716;17.158;2023-07-30T06:40:45;98704.78;;;20.43;73.50
77587;BME280;66744;49.716;17.158;2023-07-30T06:43:49;98707.84;;;20.45;73.52
77587;BME280;66744;49.716;17.158;2023-07-30T06:47:00;98705.81;;;20.45;72.70
77587;BME280;66744;49.716;17.158;2023-07-30T06:50:17;98702.00;;;20.54;72.14
77587;BME280;66744;49.716;17.158;2023-07-30T06:53:21;98691.06;;;20.56;73.08
77587;BME280;66744;49.716;17.158;2023-07-30T06:56:23;98698.41;;;20.65;72.99
77587;BME280;66744;49.716;17.158;2023-07-30T06:59:29;98696.88;;;20.75;72.18
77587;BME280;66744;49.716;17.158;2023-07-30T07:02:40;98690.50;;;20.74;71.44
77587;BME280;66744;49.716;17.158;2023-07-30T07:05:43;98691.75;;;20.79;71.80
77587;BME280;66744;49.716;17.158;2023-07-30T07:08:47;98697.81;;;20.88;71.10
77587;BME280;66744;49.716;17.158;2023-07-30T07:11:59;98695.28;;;20.96;71.36
77587;BME280;66744;49.716;17.158;2023-07-30T07:15:04;98690.69;;;20.98;70.87
77587;BME280;66744;49.716;17.158;2023-07-30T07:18:13;98705.16;;;20.97;72.13
77587;BME280;66744;49.716;17.158;2023-07-30T07:21:19;98707.19;;;20.96;71.82
77587;BME280;66744;49.716;17.158;2023-07-30T07:24:34;98696.03;;;20.91;70.86
77587;BME280;66744;49.716;17.158;2023-07-30T07:27:38;98716.59;;;20.99;70.77
77587;BME280;66744;49.716;17.158;2023-07-30T07:30:42;98705.41;;;20.99;70.89
77587;BME280;66744;49.716;17.158;2023-07-30T07:33:46;98714.06;;;20.95;70.86
77587;BME280;66744;49.716;17.158;2023-07-30T07:36:47;98717.56;;;21.13;71.13
77587;BME280;66744;49.716;17.158;2023-07-30T07:39:51;98700.31;;;21.14;69.69
77587;BME280;66744;49.716;17.158;2023-07-30T07:42:55;98718.28;;;21.24;69.89
77587;BME280;66744;49.716;17.158;2023-07-30T07:45:59;98710.13;;;21.26;69.88
77587;BME280;66744;49.716;17.158;2023-07-30T07:49:00;98715.22;;;21.28;68.30
77587;BME280;66744;49.716;17.158;2023-07-30T07:52:17;98716.44;;;21.38;68.13
77587;BME280;66744;49.716;17.158;2023-07-30T07:55:21;98710.81;;;21.43;68.05
77587;BME280;66744;49.716;17.158;2023-07-30T07:58:25;98711.59;;;21.44;67.46
77587;BME280;66744;49.716;17.158;2023-07-30T08:01:47;98713.84;;;21.45;68.30
77587;BME280;66744;49.716;17.158;2023-07-30T08:04:52;98717.09;;;21.55;67.45
77587;BME280;66744;49.716;17.158;2023-07-30T08:08:08;98708.19;;;21.56;68.27
77587;BME280;66744;49.716;17.158;2023-07-30T08:11:11;98714.22;;;21.66;69.21
77587;BME280;66744;49.716;17.158;2023-07-30T08:14:16;98727.59;;;21.84;67.84
77587;BME280;66744;49.716;17.158;2023-07-30T08:17:18;98723.81;;;21.82;66.84
77587;BME280;66744;49.716;17.158;2023-07-30T08:20:23;98730.66;;;21.81;66.85
77587;BME280;66744;49.716;17.158;2023-07-30T08:23:27;98722.75;;;21.85;67.54
77587;BME280;66744;49.716;17.158;2023-07-30T08:26:28;98735.16;;;21.95;66.74
77587;BME280;66744;49.716;17.158;2023-07-30T08:29:32;98745.13;;;21.90;67.81
77587;BME280;66744;49.716;17.158;2023-07-30T08:32:35;98736.69;;;21.96;68.01
77587;BME280;66744;49.716;17.158;2023-07-30T08:35:36;98733.03;;;22.06;67.68
77587;BME280;66744;49.716;17.158;2023-07-30T08:38:43;98738.84;;;22.14;67.40
77587;BME280;66744;49.716;17.158;2023-07-30T08:41:47;98743.13;;;22.21;66.61
77587;BME280;66744;49.716;17.158;2023-07-30T08:44:52;98734.50;;;22.13;66.18
77587;BME280;66744;49.716;17.158;2023-07-30T08:47:53;98728.88;;;22.19;66.94
77587;BME280;66744;49.716;17.158;2023-07-30T08:50:57;98735.50;;;22.21;65.99
77587;BME280;66744;49.716;17.158;2023-07-30T08:54:04;98740.78;;;22.25;66.65
77587;BME280;66744;49.716;17.158;2023-07-30T08:57:07;98743.03;;;22.32;66.66
77587;BME280;66744;49.716;17.158;2023-07-30T09:00:09;98748.84;;;22.34;67.58
77587;BME280;66744;49.716;17.158;2023-07-30T09:03:15;98744.53;;;22.33;67.10
77587;BME280;66744;49.716;17.158;2023-07-30T09:06:20;98734.69;;;22.26;66.60
77587;BME280;66744;49.716;17.158;2023-07-30T09:09:23;98732.91;;;22.23;67.17
77587;BME280;66744;49.716;17.158;2023-07-30T09:12:34;98732.34;;;22.30;66.70
77587;BME280;66744;49.716;17.158;2023-07-30T09:16:00;98745.00;;;22.37;65.70
77587;BME280;66744;49.716;17.158;2023-07-30T09:19:16;98734.09;;;22.33;65.67
77587;BME280;66744;49.716;17.158;2023-07-30T09:22:28;98726.72;;;22.36;66.30
77587;BME280;66744;49.716;17.158;2023-07-30T09:25:33;98733.00;;;22.42;64.75
77587;BME280;66744;49.716;17.158;2023-07-30T09:29:06;98745.97;;;22.45;64.45
77587;BME280;66744;49.716;17.158;2023-07-30T09:32:21;98736.31;;;22.40;64.68
77587;BME280;66744;49.716;17.158;2023-07-30T09:35:27;98738.63;;;22.42;64.93
77587;BME280;66744;49.716;17.158;2023-07-30T09:38:41;98735.56;;;22.40;65.49
77587;BME280;66744;49.716;17.158;2023-07-30T09:41:52;98732.44;;;22.49;66.03
77587;BME280;66744;49.716;17.158;2023-07-30T09:45:01;98724.03;;;22.49;65.30
77587;BME280;66744;49.716;17.158;2023-07-30T09:48:05;98738.22;;;22.56;64.43
77587;BME280;66744;49.716;17.158;2023-07-30T09:51:10;98726.78;;;22.54;65.18
77587;BME280;66744;49.716;17.158;2023-07-30T09:54:14;98726.44;;;22.63;64.79
77587;BME280;66744;49.716;17.158;2023-07-30T09:57:21;98716.25;;;22.66;64.95
77587;BME280;66744;49.716;17.158;2023-07-30T10:00:25;98718.13;;;22.52;63.04
77587;BME280;66744;49.716;17.158;2023-07-30T10:03:32;98717.84;;;22.56;63.71
77587;BME280;66744;49.716;17.158;2023-07-30T10:10:07;98713.75;;;22.57;63.46
77587;BME280;66744;49.716;17.158;2023-07-30T10:13:12;98714.47;;;22.63;64.24
77587;BME280;66744;49.716;17.158;2023-07-30T10:16:14;98730.38;;;22.79;64.17
77587;BME280;66744;49.716;17.158;2023-07-30T10:19:26;98710.47;;;22.83;64.27
77587;BME280;66744;49.716;17.158;2023-07-30T10:22:31;98718.03;;;22.88;63.89
77587;BME280;66744;49.716;17.158;2023-07-30T10:25:53;98711.94;;;22.89;63.80
77587;BME280;66744;49.716;17.158;2023-07-30T10:29:18;98719.16;;;23.03;63.75
77587;BME280;66744;49.716;17.158;2023-07-30T10:32:22;98713.63;;;22.98;63.72
77587;BME280;66744;49.716;17.158;2023-07-30T10:35:39;98713.06;;;22.99;63.12
77587;BME280;66744;49.716;17.158;2023-07-30T10:38:40;98699.06;;;22.99;64.06
77587;BME280;66744;49.716;17.158;2023-07-30T10:41:57;98707.66;;;23.07;63.83
77587;BME280;66744;49.716;17.158;2023-07-30T10:44:59;98710.13;;;23.10;63.74
77587;BME280;66744;49.716;17.158;2023-07-30T10:48:18;98717.47;;;23.13;63.96
77587;BME280;66744;49.716;17.158;2023-07-30T10:51:25;98717.03;;;23.09;63.20
77587;BME280;66744;49.716;17.158;2023-07-30T10:54:33;98713.25;;;23.07;64.23
77587;BME280;66744;49.716;17.158;2023-07-30T10:57:37;98718.72;;;23.18;64.17
77587;BME280;66744;49.716;17.158;2023-07-30T11:00:49;98710.88;;;23.11;64.27
77587;BME280;66744;49.716;17.158;2023-07-30T11:03:58;98718.41;;;23.21;64.37
77587;BME280;66744;49.716;17.158;2023-07-30T11:07:20;98713.25;;;23.25;63.80
77587;BME280;66744;49.716;17.158;2023-07-30T11:10:44;98705.81;;;23.28;63.42
77587;BME280;66744;49.716;17.158;2023-07-30T11:13:53;98712.66;;;23.33;63.41
77587;BME280;66744;49.716;17.158;2023-07-30T11:17:05;98723.66;;;23.31;63.02
77587;BME280;66744;49.716;17.158;2023-07-30T11:20:25;98735.84;;;23.33;64.15
77587;BME280;66744;49.716;17.158;2023-07-30T11:23:56;98740.31;;;23.23;63.38
77587;BME280;66744;49.716;17.158;2023-07-30T11:26:59;98744.69;;;23.18;64.52
77587;BME280;66744;49.716;17.158;2023-07-30T11:30:22;98793.16;;;23.13;64.50
77587;BME280;66744;49.716;17.158;2023-07-30T11:33:23;98811.44;;;22.72;61.65
77587;BME280;66744;49.716;17.158;2023-07-30T11:36:25;98805.47;;;22.21;64.27
77587;BME280;66744;49.716;17.158;2023-07-30T11:39:28;98797.84;;;21.70;65.79
77587;BME280;66744;49.716;17.158;2023-07-30T11:42:30;98789.31;;;21.45;66.84
77587;BME280;66744;49.716;17.158;2023-07-30T11:45:32;98792.97;;;21.18;68.42
77587;BME280;66744;49.716;17.158;2023-07-30T11:48:35;98775.25;;;20.99;68.58
77587;BME280;66744;49.716;17.158;2023-07-30T11:51:41;98791.25;;;20.93;68.58
77587;BME280;66744;49.716;17.158;2023-07-30T11:55:10;98772.78;;;20.62;69.18
77587;BME280;66744;49.716;17.158;2023-07-30T11:58:21;98779.88;;;20.58;69.75
77587;BME280;66744;49.716;17.158;2023-07-30T12:01:30;98774.56;;;20.54;70.36
77587;BME280;66744;49.716;17.158;2023-07-30T12:04:46;98776.84;;;20.50;70.05
77587;BME280;66744;49.716;17.158;2023-07-30T12:07:53;98767.47;;;20.42;70.26
77587;BME280;66744;49.716;17.158;2023-07-30T12:10:54;98771.50;;;20.41;70.69
77587;BME280;66744;49.716;17.158;2023-07-30T12:14:04;98784.19;;;20.47;70.51
77587;BME280;66744;49.716;17.158;2023-07-30T12:17:19;98769.25;;;20.39;70.69
77587;BME280;66744;49.716;17.158;2023-07-30T12:20:29;98775.31;;;20.43;70.30
77587;BME280;66744;49.716;17.158;2023-07-30T12:23:41;98772.28;;;20.41;71.90
77587;BME280;66744;49.716;17.158;2023-07-30T12:27:25;98771.00;;;20.31;72.83
77587;BME280;66744;49.716;17.158;2023-07-30T12:30:32;98788.50;;;20.26;72.52
77587;BME280;66744;49.716;17.158;2023-07-30T12:33:39;98777.81;;;20.14;73.64
77587;BME280;66744;49.716;17.158;2023-07-30T12:36:49;98780.34;;;20.12;74.21
77587;BME280;66744;49.716;17.158;2023-07-30T12:40:11;98778.81;;;20.16;73.61
77587;BME280;66744;49.716;17.158;2023-07-30T12:43:17;98763.16;;;20.30;72.94
77587;BME280;66744;49.716;17.158;2023-07-30T12:46:42;98763.13;;;20.46;72.68
77587;BME280;66744;49.716;17.158;2023-07-30T12:49:44;98748.94;;;20.50;72.61
77587;BME280;66744;49.716;17.158;2023-07-30T12:52:47;98740.78;;;20.52;73.45
77587;BME280;66744;49.716;17.158;2023-07-30T12:55:50;98746.63;;;20.60;72.50
77587;BME280;66744;49.716;17.158;2023-07-30T12:58:52;98738.78;;;20.64;71.70
77587;BME280;66744;49.716;17.158;2023-07-30T13:01:58;98733.66;;;20.68;72.10
77587;BME280;66744;49.716;17.158;2023-07-30T13:05:00;98726.31;;;20.70;73.84
77587;BME280;66744;49.716;17.158;2023-07-30T13:08:01;98730.38;;;20.75;73.15
77587;BME280;66744;49.716;17.158;2023-07-30T13:11:03;98733.38;;;20.82;73.55
77587;BME280;66744;49.716;17.158;2023-07-30T13:14:04;98716.91;;;20.73;71.96
77587;BME280;66744;49.716;17.158;2023-07-30T13:17:06;98713.34;;;20.78;71.53
77587;BME280;66744;49.716;17.158;2023-07-30T13:20:10;98712.81;;;20.85;72.52
77587;BME280;66744;49.716;17.158;2023-07-30T13:23:15;98717.09;;;20.92;70.67
77587;BME280;66744;49.716;17.158;2023-07-30T13:26:17;98727.72;;;21.04;71.42
77587;BME280;66744;49.716;17.158;2023-07-30T13:29:23;98714.09;;;20.90;72.13
77587;BME280;66744;49.716;17.158;2023-07-30T13:32:25;98707.41;;;21.04;71.51
77587;BME280;66744;49.716;17.158;2023-07-30T13:35:27;98711.94;;;21.18;70.60
77587;BME280;66744;49.716;17.158;2023-07-30T13:38:28;98709.41;;;21.15;70.59
77587;BME280;66744;49.716;17.158;2023-07-30T13:41:32;98694.41;;;21.23;70.83
77587;BME280;66744;49.716;17.158;2023-07-30T13:44:38;98704.19;;;21.46;70.74
77587;BME280;66744;49.716;17.158;2023-07-30T13:47:44;98708.00;;;21.49;70.15
77587;BME280;66744;49.716;17.158;2023-07-30T13:50:48;98695.81;;;21.46;70.16
77587;BME280;66744;49.716;17.158;2023-07-30T13:54:04;98702.59;;;21.56;69.99
77587;BME280;66744;49.716;17.158;2023-07-30T13:57:09;98702.84;;;21.58;69.98
77587;BME280;66744;49.716;17.158;2023-07-30T14:00:12;98716.16;;;21.82;69.38
77587;BME280;66744;49.716;17.158;2023-07-30T14:03:32;98700.31;;;21.96;69.34
77587;BME280;66744;49.716;17.158;2023-07-30T14:06:38;98701.47;;;22.11;69.04
77587;BME280;66744;49.716;17.158;2023-07-30T14:10:00;98695.72;;;22.28;67.74
77587;BME280;66744;49.716;17.158;2023-07-30T14:13:08;98704.00;;;22.39;68.22
77587;BME280;66744;49.716;17.158;2023-07-30T14:16:09;98708.09;;;22.38;67.19
77587;BME280;66744;49.716;17.158;2023-07-30T14:19:31;98704.19;;;22.47;66.77
77587;BME280;66744;49.716;17.158;2023-07-30T14:22:50;98700.06;;;22.53;68.12
77587;BME280;66744;49.716;17.158;2023-07-30T14:25:52;98695.16;;;22.59;67.58
77587;BME280;66744;49.716;17.158;2023-07-30T14:28:54;98689.25;;;22.63;68.41
77587;BME280;66744;49.716;17.158;2023-07-30T14:31:55;98679.66;;;22.58;66.68
77587;BME280;66744;49.716;17.158;2023-07-30T14:35:04;98673.00;;;22.61;67.14
77587;BME280;66744;49.716;17.158;2023-07-30T14:38:20;98673.44;;;22.71;66.70
77587;BME280;66744;49.716;17.158;2023-07-30T14:41:21;98668.28;;;22.75;65.79
77587;BME280;66744;49.716;17.158;2023-07-30T14:44:23;98658.53;;;22.82;65.73
77587;BME280;66744;49.716;17.158;2023-07-30T14:47:27;98676.03;;;22.88;66.35
77587;BME280;66744;49.716;17.158;2023-07-30T14:50:29;98657.19;;;22.88;66.14
77587;BME280;66744;49.716;17.158;2023-07-30T14:53:32;98665.66;;;23.01;66.77
77587;BME280;66744;49.716;17.158;2023-07-30T14:56:44;98657.22;;;23.07;65.73
77587;BME280;66744;49.716;17.158;2023-07-30T15:00:00;98668.03;;;23.16;65.60
77587;BME280;66744;49.716;17.158;2023-07-30T15:03:24;98671.00;;;23.23;65.65
77587;BME280;66744;49.716;17.158;2023-07-30T15:07:01;98674.94;;;23.34;64.90
77587;BME280;66744;49.716;17.158;2023-07-30T15:10:03;98675.44;;;23.32;65.05
77587;BME280;66744;49.716;17.158;2023-07-30T15:13:05;98676.72;;;23.31;64.76
77587;BME280;66744;49.716;17.158;2023-07-30T15:16:43;98666.53;;;23.34;63.93
77587;BME280;66744;49.716;17.158;2023-07-30T15:23:46;98670.72;;;23.46;64.18
77587;BME280;66744;49.716;17.158;2023-07-30T15:27:03;98661.47;;;23.51;64.06
77587;BME280;66744;49.716;17.158;2023-07-30T15:30:39;98649.25;;;23.48;64.38
77587;BME280;66744;49.716;17.158;2023-07-30T15:34:21;98645.16;;;23.49;63.48
77587;BME280;66744;49.716;17.158;2023-07-30T15:37:46;98645.16;;;23.49;62.01
77587;BME280;66744;49.716;17.158;2023-07-30T15:40:55;98647.03;;;23.60;62.86
77587;BME280;66744;49.716;17.158;2023-07-30T15:44:30;98640.78;;;23.67;61.36
77587;BME280;66744;49.716;17.158;2023-07-30T15:48:00;98630.75;;;23.58;61.50
77587;BME280;66744;49.716;17.158;2023-07-30T15:51:58;98645.59;;;23.72;61.19
77587;BME280;66744;49.716;17.158;2023-07-30T15:55:16;98632.16;;;23.65;61.09
77587;BME280;66744;49.716;17.158;2023-07-30T16:02:14;98631.97;;;23.76;60.64
77587;BME280;66744;49.716;17.158;2023-07-30T16:05:21;98632.56;;;23.88;60.15
77587;BME280;66744;49.716;17.158;2023-07-30T16:09:08;98618.88;;;23.84;59.61
77587;BME280;66744;49.716;17.158;2023-07-30T16:12:48;98614.31;;;23.81;60.71
77587;BME280;66744;49.716;17.158;2023-07-30T16:16:23;98621.97;;;23.81;60.38
77587;BME280;66744;49.716;17.158;2023-07-30T16:19:34;98613.78;;;23.83;60.04
77587;BME280;66744;49.716;17.158;2023-07-30T16:22:41;98609.22;;;23.79;59.96
77587;BME280;66744;49.716;17.158;2023-07-30T16:25:51;98606.44;;;23.79;60.05
77587;BME280;66744;49.716;17.158;2023-07-30T16:29:18;98620.34;;;23.85;60.22
77587;BME280;66744;49.716;17.158;2023-07-30T16:32:24;98611.50;;;23.81;60.49